createdAt,value
2019-02-23T00:00:15.239Z,1023.32
2019-02-23T00:00:55.881Z,1023.32
2019-02-23T00:01:36.484Z,1023.33
2019-02-23T00:02:17.092Z,1023.31
2019-02-23T00:02:57.777Z,1023.33
2019-02-23T00:03:38.384Z,1023.32
2019-02-23T00:04:19.000Z,1023.34
2019-02-23T00:04:59.637Z,1023.33
2019-02-23T00:05:40.255Z,1023.34
2019-02-23T00:06:29.221Z,1023.31
2019-02-23T00:07:01.583Z,1023.35
2019-02-23T00:07:42.193Z,1023.32
2019-02-23T00:08:22.837Z,1023.34
2019-02-23T00:09:03.453Z,1023.34
2019-02-23T00:09:44.098Z,1023.34
2019-02-23T00:10:24.753Z,1023.32
2019-02-23T00:11:05.361Z,1023.33
2019-02-23T00:11:45.966Z,1023.3
2019-02-23T00:12:26.612Z,1023.31
2019-02-23T00:13:07.207Z,1023.31
2019-02-23T00:13:47.870Z,1023.37
2019-02-23T00:14:28.478Z,1023.37
2019-02-23T00:15:09.273Z,1023.36
2019-02-23T00:15:49.902Z,1023.35
2019-02-23T00:16:30.490Z,1023.37
2019-02-23T00:17:11.097Z,1023.36
2019-02-23T00:17:51.720Z,1023.32
2019-02-23T00:18:32.337Z,1023.36
2019-02-23T00:19:24.119Z,1023.35
2019-02-23T00:19:53.603Z,1023.37
2019-02-23T00:20:34.225Z,1023.35
2019-02-23T00:21:14.833Z,1023.34
2019-02-23T00:21:55.461Z,1023.33
2019-02-23T00:22:36.085Z,1023.32
2019-02-23T00:23:16.693Z,1023.39
2019-02-23T00:23:57.296Z,1023.35
2019-02-23T00:24:37.946Z,1023.35
2019-02-23T00:25:18.541Z,1023.38
2019-02-23T00:25:59.156Z,1023.36
2019-02-23T00:26:39.777Z,1023.36
2019-02-23T00:27:20.397Z,1023.36
2019-02-23T00:28:01.032Z,1023.31
2019-02-23T00:28:41.633Z,1023.36
2019-02-23T00:29:22.314Z,1023.36
2019-02-23T00:30:02.899Z,1023.35
2019-02-23T00:30:43.499Z,1023.38
2019-02-23T00:31:24.115Z,1023.36
2019-02-23T00:32:04.708Z,1023.41
2019-02-23T00:32:45.330Z,1023.4
2019-02-23T00:33:25.945Z,1023.43
2019-02-23T00:34:06.557Z,1023.35
2019-02-23T00:34:47.177Z,1023.38
2019-02-23T00:35:27.816Z,1023.34
2019-02-23T00:36:08.462Z,1023.37
2019-02-23T00:36:49.110Z,1023.36
2019-02-23T00:37:29.711Z,1023.36
2019-02-23T00:38:10.363Z,1023.38
2019-02-23T00:38:50.971Z,1023.38
2019-02-23T00:39:31.600Z,1023.34
2019-02-23T00:40:12.282Z,1023.34
2019-02-23T00:40:52.895Z,1023.35
2019-02-23T00:41:33.519Z,1023.34
2019-02-23T00:42:14.132Z,1023.37
2019-02-23T00:42:54.738Z,1023.36
2019-02-23T00:43:35.357Z,1023.34
2019-02-23T00:44:15.956Z,1023.29
2019-02-23T00:44:56.567Z,1023.32
2019-02-23T00:45:37.218Z,1023.32
2019-02-23T00:46:17.818Z,1023.28
2019-02-23T00:46:58.449Z,1023.3
2019-02-23T00:47:39.064Z,1023.31
2019-02-23T00:48:19.673Z,1023.28
2019-02-23T00:49:00.395Z,1023.29
2019-02-23T00:49:41.002Z,1023.27
2019-02-23T00:50:21.630Z,1023.3
2019-02-23T00:51:02.250Z,1023.29
2019-02-23T00:51:42.912Z,1023.26
2019-02-23T00:52:23.525Z,1023.26
2019-02-23T00:53:04.235Z,1023.26
2019-02-23T00:53:44.856Z,1023.27
2019-02-23T00:54:25.501Z,1023.28
2019-02-23T00:55:06.148Z,1023.28
2019-02-23T00:55:46.780Z,1023.31
2019-02-23T00:56:27.394Z,1023.23
2019-02-23T00:57:07.998Z,1023.21
2019-02-23T00:57:48.601Z,1023.25
2019-02-23T00:58:29.213Z,1023.22
2019-02-23T00:59:09.834Z,1023.24
2019-02-23T00:59:50.419Z,1023.25
2019-02-23T01:00:31.023Z,1023.25
2019-02-23T01:01:11.651Z,1023.28
2019-02-23T01:01:52.255Z,1023.31
2019-02-23T01:02:33.072Z,1023.28
2019-02-23T01:03:13.689Z,1023.29
2019-02-23T01:03:54.285Z,1023.29
2019-02-23T01:04:34.903Z,1023.3
2019-02-23T01:05:15.523Z,1023.32
2019-02-23T01:05:56.126Z,1023.33
2019-02-23T01:06:36.719Z,1023.33
2019-02-23T01:07:17.319Z,1023.34
2019-02-23T01:07:57.928Z,1023.32
2019-02-23T01:08:38.534Z,1023.32
2019-02-23T01:09:19.187Z,1023.34
2019-02-23T01:09:59.807Z,1023.32
2019-02-23T01:10:40.429Z,1023.32
2019-02-23T01:11:21.065Z,1023.33
2019-02-23T01:12:01.672Z,1023.31
2019-02-23T01:12:42.298Z,1023.31
2019-02-23T01:13:22.902Z,1023.31
2019-02-23T01:14:03.498Z,1023.33
2019-02-23T01:14:44.214Z,1023.32
2019-02-23T01:15:24.816Z,1023.32
2019-02-23T01:16:05.431Z,1023.33
2019-02-23T01:16:46.044Z,1023.3
2019-02-23T01:17:26.654Z,1023.29
2019-02-23T01:18:07.260Z,1023.28
2019-02-23T01:18:47.868Z,1023.29
2019-02-23T01:19:28.502Z,1023.27
2019-02-23T01:20:09.122Z,1023.33
2019-02-23T01:20:49.720Z,1023.31
2019-02-23T01:21:30.315Z,1023.32
2019-02-23T01:22:10.940Z,1023.28
2019-02-23T01:22:51.553Z,1023.28
2019-02-23T01:23:32.152Z,1023.3
2019-02-23T01:24:12.885Z,1023.26
2019-02-23T01:24:53.523Z,1023.32
2019-02-23T01:25:34.128Z,1023.32
2019-02-23T01:26:14.731Z,1023.35
2019-02-23T01:26:55.377Z,1023.34
2019-02-23T01:27:36.051Z,1023.32
2019-02-23T01:28:16.647Z,1023.32
2019-02-23T01:28:57.246Z,1023.29
2019-02-23T01:29:37.854Z,1023.25
2019-02-23T01:30:18.510Z,1023.26
2019-02-23T01:30:59.148Z,1023.28
2019-02-23T01:31:39.761Z,1023.3
2019-02-23T01:32:20.424Z,1023.26
2019-02-23T01:33:01.032Z,1023.25
2019-02-23T01:33:41.639Z,1023.23
2019-02-23T01:34:22.240Z,1023.21
2019-02-23T01:35:02.857Z,1023.19
2019-02-23T01:35:43.465Z,1023.2
2019-02-23T01:36:24.078Z,1023.21
2019-02-23T01:37:04.682Z,1023.27
2019-02-23T01:37:45.320Z,1023.26
2019-02-23T01:38:26.027Z,1023.24
2019-02-23T01:39:06.624Z,1023.24
2019-02-23T01:39:47.257Z,1023.24
2019-02-23T01:40:27.887Z,1023.21
2019-02-23T01:41:08.502Z,1023.22
2019-02-23T01:41:49.124Z,1023.21
2019-02-23T01:42:29.732Z,1023.23
2019-02-23T01:43:10.334Z,1023.26
2019-02-23T01:43:50.936Z,1023.26
2019-02-23T01:44:31.549Z,1023.22
2019-02-23T01:45:12.156Z,1023.22
2019-02-23T01:45:52.768Z,1023.21
2019-02-23T01:46:33.380Z,1023.2
2019-02-23T01:47:14.000Z,1023.22
2019-02-23T01:47:54.622Z,1023.2
2019-02-23T01:48:35.234Z,1023.2
2019-02-23T01:49:15.846Z,1023.22
2019-02-23T01:49:59.034Z,1023.24
2019-02-23T01:50:37.052Z,1023.22
2019-02-23T01:51:17.656Z,1023.24
2019-02-23T01:51:58.263Z,1023.24
2019-02-23T01:52:38.855Z,1023.21
2019-02-23T01:53:19.461Z,1023.22
2019-02-23T01:54:00.075Z,1023.25
2019-02-23T01:54:40.706Z,1023.24
2019-02-23T01:55:21.308Z,1023.26
2019-02-23T01:56:01.939Z,1023.26
2019-02-23T01:56:42.552Z,1023.27
2019-02-23T01:57:23.155Z,1023.22
2019-02-23T01:58:03.780Z,1023.2
2019-02-23T01:58:44.390Z,1023.24
2019-02-23T01:59:24.992Z,1023.23
2019-02-23T02:00:05.573Z,1023.24
2019-02-23T02:00:46.184Z,1023.22
2019-02-23T02:01:26.780Z,1023.22
2019-02-23T02:02:07.398Z,1023.22
2019-02-23T02:02:48.030Z,1023.23
2019-02-23T02:03:28.641Z,1023.19
2019-02-23T02:04:09.246Z,1023.21
2019-02-23T02:04:49.850Z,1023.2
2019-02-23T02:05:30.441Z,1023.23
2019-02-23T02:06:11.040Z,1023.21
2019-02-23T02:06:51.637Z,1023.23
2019-02-23T02:07:32.232Z,1023.2
2019-02-23T02:08:12.832Z,1023.2
2019-02-23T02:08:53.452Z,1023.19
2019-02-23T02:09:34.070Z,1023.17
2019-02-23T02:10:14.675Z,1023.17
2019-02-23T02:10:55.276Z,1023.19
2019-02-23T02:11:35.902Z,1023.19
2019-02-23T02:12:16.487Z,1023.23
2019-02-23T02:12:57.098Z,1023.26
2019-02-23T02:13:37.714Z,1023.23
2019-02-23T02:14:18.348Z,1023.17
2019-02-23T02:14:58.940Z,1023.19
2019-02-23T02:15:39.546Z,1023.18
2019-02-23T02:16:20.160Z,1023.2
2019-02-23T02:17:00.751Z,1023.2
2019-02-23T02:17:41.332Z,1023.2
2019-02-23T02:18:21.935Z,1023.17
2019-02-23T02:19:02.601Z,1023.17
2019-02-23T02:19:43.170Z,1023.16
2019-02-23T02:20:23.780Z,1023.15
2019-02-23T02:21:04.393Z,1023.15
2019-02-23T02:21:44.985Z,1023.15
2019-02-23T02:22:25.577Z,1023.15
2019-02-23T02:23:06.177Z,1023.11
2019-02-23T02:23:46.819Z,1023.15
2019-02-23T02:24:27.438Z,1023.16
2019-02-23T02:25:08.041Z,1023.13
2019-02-23T02:25:48.642Z,1023.08
2019-02-23T02:26:29.246Z,1023.09
2019-02-23T02:27:09.842Z,1023.13
2019-02-23T02:27:50.452Z,1023.12
2019-02-23T02:28:31.068Z,1023.1
2019-02-23T02:29:11.678Z,1023.12
2019-02-23T02:29:52.280Z,1023.11
2019-02-23T02:30:32.882Z,1023.12
2019-02-23T02:31:13.491Z,1023.06
2019-02-23T02:31:54.100Z,1023.06
2019-02-23T02:32:34.711Z,1023.07
2019-02-23T02:33:15.302Z,1023.09
2019-02-23T02:33:55.922Z,1023.06
2019-02-23T02:34:36.534Z,1023.09
2019-02-23T02:35:17.174Z,1023.08
2019-02-23T02:35:57.802Z,1023.06
2019-02-23T02:36:38.388Z,1023.05
2019-02-23T02:37:19.034Z,1023.02
2019-02-23T02:37:59.664Z,1023.02
2019-02-23T02:38:40.288Z,1022.98
2019-02-23T02:39:20.932Z,1022.97
2019-02-23T02:40:01.538Z,1022.95
2019-02-23T02:40:42.146Z,1022.93
2019-02-23T02:41:22.855Z,1022.97
2019-02-23T02:42:03.485Z,1022.96
2019-02-23T02:42:44.078Z,1022.98
2019-02-23T02:43:24.686Z,1022.99
2019-02-23T02:44:05.280Z,1022.98
2019-02-23T02:44:45.874Z,1022.99
2019-02-23T02:45:26.468Z,1023.01
2019-02-23T02:46:07.070Z,1023.03
2019-02-23T02:46:47.704Z,1023.06
2019-02-23T02:47:28.314Z,1023.06
2019-02-23T02:48:08.920Z,1023.03
2019-02-23T02:48:49.524Z,1023.06
2019-02-23T02:49:30.124Z,1023.06
2019-02-23T02:50:23.254Z,1023.05
2019-02-23T02:50:51.328Z,1023.02
2019-02-23T02:51:31.972Z,1023
2019-02-23T02:52:12.556Z,1023.01
2019-02-23T02:52:53.172Z,1023
2019-02-23T02:53:33.780Z,1022.99
2019-02-23T02:54:14.387Z,1023.03
2019-02-23T02:54:54.986Z,1023.03
2019-02-23T02:55:35.605Z,1022.97
2019-02-23T02:56:16.220Z,1022.95
2019-02-23T02:56:56.820Z,1022.92
2019-02-23T02:57:37.571Z,1022.93
2019-02-23T02:58:18.027Z,1022.95
2019-02-23T02:58:58.632Z,1022.92
2019-02-23T02:59:39.242Z,1022.95
2019-02-23T03:00:19.856Z,1022.91
2019-02-23T03:01:00.482Z,1022.94
2019-02-23T03:01:41.066Z,1022.93
2019-02-23T03:02:21.679Z,1022.93
2019-02-23T03:03:02.281Z,1022.92
2019-02-23T03:03:42.876Z,1022.91
2019-02-23T03:04:23.488Z,1022.92
2019-02-23T03:05:04.111Z,1022.91
2019-02-23T03:05:44.710Z,1022.88
2019-02-23T03:06:25.302Z,1022.9
2019-02-23T03:07:05.902Z,1022.9
2019-02-23T03:07:46.508Z,1022.89
2019-02-23T03:08:27.120Z,1022.91
2019-02-23T03:09:07.740Z,1022.92
2019-02-23T03:09:48.332Z,1022.9
2019-02-23T03:10:28.935Z,1022.9
2019-02-23T03:11:09.567Z,1022.93
2019-02-23T03:11:50.168Z,1022.88
2019-02-23T03:12:30.748Z,1022.88
2019-02-23T03:13:11.363Z,1022.87
2019-02-23T03:13:51.979Z,1022.9
2019-02-23T03:14:32.584Z,1022.88
2019-02-23T03:15:13.196Z,1022.89
2019-02-23T03:15:53.804Z,1022.86
2019-02-23T03:16:34.422Z,1022.9
2019-02-23T03:17:15.033Z,1022.92
2019-02-23T03:17:55.646Z,1022.86
2019-02-23T03:18:36.254Z,1022.88
2019-02-23T03:19:16.898Z,1022.9
2019-02-23T03:19:57.482Z,1022.88
2019-02-23T03:20:38.090Z,1022.86
2019-02-23T03:21:18.697Z,1022.88
2019-02-23T03:21:59.324Z,1022.93
2019-02-23T03:22:39.931Z,1022.88
2019-02-23T03:23:20.546Z,1022.86
2019-02-23T03:24:01.154Z,1022.91
2019-02-23T03:24:41.768Z,1022.94
2019-02-23T03:25:22.378Z,1022.88
2019-02-23T03:26:02.990Z,1022.91
2019-02-23T03:26:43.608Z,1022.95
2019-02-23T03:27:24.208Z,1022.91
2019-02-23T03:28:04.829Z,1022.9
2019-02-23T03:28:45.432Z,1022.94
2019-02-23T03:29:26.024Z,1022.93
2019-02-23T03:30:06.648Z,1022.97
2019-02-23T03:30:47.331Z,1022.95
2019-02-23T03:31:27.857Z,1022.91
2019-02-23T03:32:08.466Z,1022.91
2019-02-23T03:32:49.076Z,1022.9
2019-02-23T03:33:29.672Z,1022.93
2019-02-23T03:34:10.290Z,1022.91
2019-02-23T03:34:50.911Z,1022.92
2019-02-23T03:35:31.520Z,1022.9
2019-02-23T03:36:12.127Z,1022.9
2019-02-23T03:36:52.743Z,1022.87
2019-02-23T03:37:33.334Z,1022.88
2019-02-23T03:38:13.924Z,1022.91
2019-02-23T03:38:54.537Z,1022.88
2019-02-23T03:39:35.147Z,1022.88
2019-02-23T03:40:15.755Z,1022.9
2019-02-23T03:40:56.370Z,1022.9
2019-02-23T03:41:36.993Z,1022.87
2019-02-23T03:42:17.602Z,1022.89
2019-02-23T03:42:58.219Z,1022.9
2019-02-23T03:43:38.810Z,1022.87
2019-02-23T03:44:19.404Z,1022.9
2019-02-23T03:44:59.999Z,1022.87
2019-02-23T03:45:40.608Z,1022.86
2019-02-23T03:46:21.244Z,1022.86
2019-02-23T03:47:01.856Z,1022.88
2019-02-23T03:47:42.472Z,1022.88
2019-02-23T03:48:23.080Z,1022.86
2019-02-23T03:49:03.688Z,1022.88
2019-02-23T03:49:44.296Z,1022.9
2019-02-23T03:50:24.887Z,1022.93
2019-02-23T03:51:05.498Z,1022.93
2019-02-23T03:51:46.102Z,1022.96
2019-02-23T03:52:27.057Z,1022.93
2019-02-23T03:53:07.685Z,1022.94
2019-02-23T03:53:48.316Z,1022.92
2019-02-23T03:54:28.923Z,1022.95
2019-02-23T03:55:09.517Z,1022.98
2019-02-23T03:55:50.112Z,1022.97
2019-02-23T03:56:30.732Z,1022.98
2019-02-23T03:57:11.336Z,1022.92
2019-02-23T03:57:51.943Z,1022.99
2019-02-23T03:58:32.562Z,1023
2019-02-23T03:59:13.177Z,1022.98
2019-02-23T03:59:53.782Z,1022.95
2019-02-23T04:00:34.386Z,1022.95
2019-02-23T04:01:14.983Z,1022.96
2019-02-23T04:01:55.583Z,1022.95
2019-02-23T04:02:36.196Z,1022.93
2019-02-23T04:03:16.792Z,1022.98
2019-02-23T04:03:57.391Z,1022.95
2019-02-23T04:04:38.008Z,1022.99
2019-02-23T04:05:18.635Z,1023.01
2019-02-23T04:05:59.226Z,1023
2019-02-23T04:06:39.820Z,1022.99
2019-02-23T04:07:20.437Z,1022.96
2019-02-23T04:08:01.042Z,1023.02
2019-02-23T04:08:41.663Z,1022.99
2019-02-23T04:09:22.258Z,1023
2019-02-23T04:10:02.870Z,1023.02
2019-02-23T04:10:43.474Z,1023.03
2019-02-23T04:11:24.414Z,1023.04
2019-02-23T04:12:05.033Z,1023.04
2019-02-23T04:12:45.621Z,1023.05
2019-02-23T04:13:26.224Z,1023.04
2019-02-23T04:14:06.840Z,1023.03
2019-02-23T04:14:47.452Z,1023.03
2019-02-23T04:15:28.052Z,1023.05
2019-02-23T04:16:08.650Z,1023.01
2019-02-23T04:16:49.302Z,1022.99
2019-02-23T04:17:29.916Z,1022.98
2019-02-23T04:18:10.550Z,1023.03
2019-02-23T04:18:51.136Z,1022.98
2019-02-23T04:19:31.722Z,1022.98
2019-02-23T04:20:12.316Z,1023
2019-02-23T04:21:01.119Z,1023
2019-02-23T04:21:33.541Z,1022.98
2019-02-23T04:22:14.154Z,1022.97
2019-02-23T04:22:54.758Z,1022.99
2019-02-23T04:23:35.351Z,1022.95
2019-02-23T04:24:15.950Z,1022.95
2019-02-23T04:24:56.541Z,1022.92
2019-02-23T04:25:37.145Z,1022.97
2019-02-23T04:26:17.844Z,1022.95
2019-02-23T04:26:58.472Z,1022.94
2019-02-23T04:27:39.068Z,1022.95
2019-02-23T04:28:19.731Z,1022.94
2019-02-23T04:29:00.327Z,1022.97
2019-02-23T04:29:40.949Z,1022.97
2019-02-23T04:30:21.545Z,1022.96
2019-02-23T04:31:02.145Z,1022.99
2019-02-23T04:31:42.735Z,1023
2019-02-23T04:32:23.339Z,1022.99
2019-02-23T04:33:03.933Z,1023
2019-02-23T04:33:44.535Z,1023.04
2019-02-23T04:34:25.149Z,1023.04
2019-02-23T04:35:05.920Z,1023.01
2019-02-23T04:35:46.690Z,1023.05
2019-02-23T04:36:27.111Z,1023.02
2019-02-23T04:37:07.738Z,1023.05
2019-02-23T04:37:48.429Z,1023.04
2019-02-23T04:38:29.040Z,1023.01
2019-02-23T04:39:09.628Z,1023.04
2019-02-23T04:39:50.296Z,1023.03
2019-02-23T04:40:30.894Z,1023.03
2019-02-23T04:41:11.491Z,1022.99
2019-02-23T04:41:52.083Z,1023
2019-02-23T04:42:32.702Z,1022.99
2019-02-23T04:43:13.387Z,1023.05
2019-02-23T04:43:54.036Z,1022.99
2019-02-23T04:44:34.633Z,1022.99
2019-02-23T04:45:15.234Z,1022.98
2019-02-23T04:45:55.846Z,1023.01
2019-02-23T04:46:36.448Z,1022.99
2019-02-23T04:47:17.050Z,1022.94
2019-02-23T04:47:57.648Z,1022.92
2019-02-23T04:48:38.256Z,1022.93
2019-02-23T04:49:18.853Z,1022.94
2019-02-23T04:49:59.467Z,1022.95
2019-02-23T04:50:40.070Z,1022.94
2019-02-23T04:51:20.699Z,1022.92
2019-02-23T04:52:01.313Z,1022.95
2019-02-23T04:52:41.919Z,1022.87
2019-02-23T04:53:22.520Z,1022.88
2019-02-23T04:54:03.120Z,1022.89
2019-02-23T04:54:43.732Z,1022.9
2019-02-23T04:55:24.348Z,1022.93
2019-02-23T04:56:04.969Z,1022.9
2019-02-23T04:56:45.573Z,1022.91
2019-02-23T04:57:26.232Z,1022.92
2019-02-23T04:58:06.834Z,1022.91
2019-02-23T04:58:47.438Z,1022.94
2019-02-23T04:59:28.651Z,1022.94
2019-02-23T05:00:09.244Z,1022.94
2019-02-23T05:00:49.826Z,1022.94
2019-02-23T05:01:30.446Z,1022.99
2019-02-23T05:02:11.071Z,1022.98
2019-02-23T05:02:51.672Z,1022.96
2019-02-23T05:03:32.276Z,1022.99
2019-02-23T05:04:12.888Z,1022.97
2019-02-23T05:04:53.490Z,1022.98
2019-02-23T05:05:34.083Z,1022.97
2019-02-23T05:06:14.687Z,1023.03
2019-02-23T05:06:55.297Z,1022.98
2019-02-23T05:07:35.898Z,1022.97
2019-02-23T05:08:16.521Z,1022.96
2019-02-23T05:08:57.120Z,1022.99
2019-02-23T05:09:37.755Z,1022.99
2019-02-23T05:10:18.355Z,1022.99
2019-02-23T05:10:58.951Z,1023.01
2019-02-23T05:11:39.559Z,1023.03
2019-02-23T05:12:20.170Z,1023.03
2019-02-23T05:13:00.829Z,1023.03
2019-02-23T05:13:41.459Z,1023.04
2019-02-23T05:14:22.073Z,1023.04
2019-02-23T05:15:02.679Z,1023.01
2019-02-23T05:15:43.270Z,1023.03
2019-02-23T05:16:23.870Z,1023.03
2019-02-23T05:17:04.473Z,1023.03
2019-02-23T05:17:45.084Z,1023.03
2019-02-23T05:18:25.700Z,1023.04
2019-02-23T05:19:06.315Z,1023.02
2019-02-23T05:19:46.921Z,1023.05
2019-02-23T05:20:27.542Z,1023.02
2019-02-23T05:21:08.141Z,1023.05
2019-02-23T05:21:48.751Z,1023.03
2019-02-23T05:22:29.377Z,1023.05
2019-02-23T05:23:09.985Z,1023.08
2019-02-23T05:23:50.603Z,1023.04
2019-02-23T05:24:31.217Z,1023.09
2019-02-23T05:25:11.819Z,1023.07
2019-02-23T05:25:52.425Z,1023.13
2019-02-23T05:26:33.025Z,1023.09
2019-02-23T05:27:13.625Z,1023.07
2019-02-23T05:27:54.241Z,1023.08
2019-02-23T05:28:34.859Z,1023.09
2019-02-23T05:29:15.482Z,1023.09
2019-02-23T05:29:56.072Z,1023.07
2019-02-23T05:30:36.703Z,1023.06
2019-02-23T05:31:17.316Z,1023.05
2019-02-23T05:31:57.923Z,1023.03
2019-02-23T05:32:38.583Z,1023.03
2019-02-23T05:33:19.190Z,1023.03
2019-02-23T05:33:59.795Z,1023.06
2019-02-23T05:34:40.423Z,1023
2019-02-23T05:35:21.027Z,1023.06
2019-02-23T05:36:01.636Z,1023.02
2019-02-23T05:36:42.255Z,1023.06
2019-02-23T05:37:22.892Z,1023.09
2019-02-23T05:38:03.505Z,1023.07
2019-02-23T05:38:44.128Z,1023.07
2019-02-23T05:39:24.745Z,1023.07
2019-02-23T05:40:05.359Z,1023.05
2019-02-23T05:40:45.987Z,1023.04
2019-02-23T05:41:26.592Z,1023.1
2019-02-23T05:42:07.201Z,1023.07
2019-02-23T05:42:47.797Z,1023.06
2019-02-23T05:43:28.401Z,1023.04
2019-02-23T05:44:09.000Z,1023.06
2019-02-23T05:44:49.599Z,1023.03
2019-02-23T05:45:30.211Z,1023.02
2019-02-23T05:46:10.867Z,1023.04
2019-02-23T05:46:51.470Z,1023
2019-02-23T05:47:32.073Z,1023.01
2019-02-23T05:48:12.678Z,1023.05
2019-02-23T05:48:53.251Z,1023.04
2019-02-23T05:49:36.771Z,1023.03
2019-02-23T05:50:14.535Z,1023.03
2019-02-23T05:50:55.155Z,1023.01
2019-02-23T05:51:38.831Z,1023.03
2019-02-23T05:52:16.512Z,1023.03
2019-02-23T05:52:57.136Z,1023.04
2019-02-23T05:53:37.744Z,1023.07
2019-02-23T05:54:18.378Z,1023.05
2019-02-23T05:54:58.984Z,1023.06
2019-02-23T05:55:39.625Z,1023.09
2019-02-23T05:56:20.221Z,1023.06
2019-02-23T05:57:00.820Z,1023.07
2019-02-23T05:57:41.424Z,1023.06
2019-02-23T05:58:22.031Z,1023.08
2019-02-23T05:59:02.622Z,1023.07
2019-02-23T05:59:43.274Z,1023.06
2019-02-23T06:00:23.890Z,1023.06
2019-02-23T06:01:04.493Z,1023.08
2019-02-23T06:01:45.095Z,1023.05
2019-02-23T06:02:25.701Z,1023.04
2019-02-23T06:03:06.311Z,1023.02
2019-02-23T06:03:46.925Z,1023.04
2019-02-23T06:04:27.525Z,1023.02
2019-02-23T06:05:08.108Z,1023.01
2019-02-23T06:05:48.732Z,1023.02
2019-02-23T06:06:29.331Z,1023.06
2019-02-23T06:07:09.937Z,1023.1
2019-02-23T06:07:50.543Z,1023.04
2019-02-23T06:08:31.154Z,1023.01
2019-02-23T06:09:11.769Z,1023.03
2019-02-23T06:09:52.495Z,1023.02
2019-02-23T06:10:33.086Z,1023.02
2019-02-23T06:11:13.697Z,1023.01
2019-02-23T06:11:54.326Z,1023
2019-02-23T06:12:34.950Z,1023.04
2019-02-23T06:13:15.635Z,1023.04
2019-02-23T06:13:56.269Z,1023.02
2019-02-23T06:14:36.861Z,1023.06
2019-02-23T06:15:17.450Z,1023.03
2019-02-23T06:15:58.039Z,1023.08
2019-02-23T06:16:38.628Z,1023.09
2019-02-23T06:17:19.241Z,1023.11
2019-02-23T06:17:59.862Z,1023.07
2019-02-23T06:18:40.454Z,1023.11
2019-02-23T06:19:21.081Z,1023.15
2019-02-23T06:20:01.689Z,1023.18
2019-02-23T06:20:42.295Z,1023.11
2019-02-23T06:21:22.987Z,1023.11
2019-02-23T06:22:03.829Z,1023.12
2019-02-23T06:22:46.666Z,1023.12
2019-02-23T06:23:25.439Z,1023.13
2019-02-23T06:24:07.087Z,1023.14
2019-02-23T06:24:48.082Z,1023.17
2019-02-23T06:25:28.859Z,1023.13
2019-02-23T06:26:09.621Z,1023.14
2019-02-23T06:26:50.222Z,1023.15
2019-02-23T06:27:30.820Z,1023.18
2019-02-23T06:28:11.453Z,1023.18
2019-02-23T06:28:52.063Z,1023.2
2019-02-23T06:29:32.677Z,1023.22
2019-02-23T06:30:13.275Z,1023.22
2019-02-23T06:30:53.874Z,1023.19
2019-02-23T06:31:34.474Z,1023.24
2019-02-23T06:32:15.091Z,1023.23
2019-02-23T06:32:55.703Z,1023.25
2019-02-23T06:33:36.331Z,1023.25
2019-02-23T06:34:17.028Z,1023.26
2019-02-23T06:34:57.537Z,1023.26
2019-02-23T06:35:38.139Z,1023.26
2019-02-23T06:36:18.737Z,1023.27
2019-02-23T06:36:59.317Z,1023.27
2019-02-23T06:37:39.908Z,1023.3
2019-02-23T06:38:20.529Z,1023.32
2019-02-23T06:39:01.218Z,1023.32
2019-02-23T06:39:41.895Z,1023.33
2019-02-23T06:40:22.537Z,1023.33
2019-02-23T06:41:03.179Z,1023.38
2019-02-23T06:41:43.797Z,1023.36
2019-02-23T06:42:24.400Z,1023.31
2019-02-23T06:43:05.000Z,1023.33
2019-02-23T06:43:45.623Z,1023.39
2019-02-23T06:44:26.242Z,1023.35
2019-02-23T06:45:06.850Z,1023.33
2019-02-23T06:45:47.451Z,1023.37
2019-02-23T06:46:28.051Z,1023.36
2019-02-23T06:47:08.671Z,1023.33
2019-02-23T06:47:49.270Z,1023.34
2019-02-23T06:48:29.860Z,1023.32
2019-02-23T06:49:10.472Z,1023.36
2019-02-23T06:49:51.120Z,1023.39
2019-02-23T06:50:31.733Z,1023.39
2019-02-23T06:51:12.351Z,1023.41
2019-02-23T06:52:03.648Z,1023.38
2019-02-23T06:52:33.560Z,1023.41
2019-02-23T06:53:14.166Z,1023.41
2019-02-23T06:53:54.863Z,1023.45
2019-02-23T06:54:35.457Z,1023.48
2019-02-23T06:55:16.070Z,1023.46
2019-02-23T06:55:56.697Z,1023.51
2019-02-23T06:56:37.303Z,1023.49
2019-02-23T06:57:17.925Z,1023.51
2019-02-23T06:57:58.545Z,1023.54
2019-02-23T06:58:39.168Z,1023.52
2019-02-23T06:59:19.779Z,1023.54
2019-02-23T07:00:00.461Z,1023.53
2019-02-23T07:00:40.993Z,1023.56
2019-02-23T07:01:21.617Z,1023.51
2019-02-23T07:02:02.217Z,1023.56
2019-02-23T07:02:42.836Z,1023.55
2019-02-23T07:03:23.421Z,1023.56
2019-02-23T07:04:04.011Z,1023.54
2019-02-23T07:04:44.607Z,1023.58
2019-02-23T07:05:25.227Z,1023.59
2019-02-23T07:06:05.825Z,1023.63
2019-02-23T07:06:46.415Z,1023.68
2019-02-23T07:07:26.999Z,1023.65
2019-02-23T07:08:07.595Z,1023.69
2019-02-23T07:08:48.221Z,1023.71
2019-02-23T07:09:28.801Z,1023.75
2019-02-23T07:10:09.424Z,1023.72
2019-02-23T07:10:50.029Z,1023.78
2019-02-23T07:11:30.641Z,1023.78
2019-02-23T07:12:11.249Z,1023.83
2019-02-23T07:12:51.890Z,1023.81
2019-02-23T07:13:32.521Z,1023.8
2019-02-23T07:14:13.164Z,1023.86
2019-02-23T07:14:54.432Z,1023.87
2019-02-23T07:15:35.037Z,1023.88
2019-02-23T07:16:17.097Z,1023.91
2019-02-23T07:16:57.705Z,1023.92
2019-02-23T07:17:38.299Z,1023.94
2019-02-23T07:18:19.026Z,1023.96
2019-02-23T07:18:59.629Z,1023.94
2019-02-23T07:19:40.235Z,1023.99
2019-02-23T07:20:20.833Z,1024.01
2019-02-23T07:21:01.510Z,1024.03
2019-02-23T07:21:42.153Z,1024.04
2019-02-23T07:22:23.037Z,1024.07
2019-02-23T07:23:03.671Z,1024.08
2019-02-23T07:23:44.243Z,1024.07
2019-02-23T07:24:24.842Z,1024.09
2019-02-23T07:25:05.449Z,1024.09
2019-02-23T07:25:46.097Z,1024.06
2019-02-23T07:26:26.707Z,1024.1
2019-02-23T07:27:07.312Z,1024.07
2019-02-23T07:27:47.929Z,1024.06
2019-02-23T07:28:28.539Z,1024.04
2019-02-23T07:29:09.187Z,1024.09
2019-02-23T07:29:49.809Z,1024.05
2019-02-23T07:30:30.411Z,1024.06
2019-02-23T07:31:11.015Z,1024.07
2019-02-23T07:31:51.628Z,1024.08
2019-02-23T07:32:32.255Z,1024.05
2019-02-23T07:33:12.873Z,1024.1
2019-02-23T07:33:53.483Z,1024.13
2019-02-23T07:34:34.139Z,1024.12
2019-02-23T07:35:14.807Z,1024.1
2019-02-23T07:35:55.423Z,1024.13
2019-02-23T07:36:36.020Z,1024.13
2019-02-23T07:37:16.620Z,1024.14
2019-02-23T07:37:57.227Z,1024.15
2019-02-23T07:38:37.845Z,1024.17
2019-02-23T07:39:18.453Z,1024.15
2019-02-23T07:39:59.049Z,1024.14
2019-02-23T07:40:39.631Z,1024.16
2019-02-23T07:41:20.235Z,1024.17
2019-02-23T07:42:00.956Z,1024.17
2019-02-23T07:42:41.595Z,1024.19
2019-02-23T07:43:22.903Z,1024.2
2019-02-23T07:44:05.194Z,1024.18
2019-02-23T07:44:46.127Z,1024.24
2019-02-23T07:45:26.735Z,1024.27
2019-02-23T07:46:07.349Z,1024.24
2019-02-23T07:46:47.951Z,1024.23
2019-02-23T07:47:28.535Z,1024.23
2019-02-23T07:48:09.147Z,1024.22
2019-02-23T07:48:49.757Z,1024.26
2019-02-23T07:49:30.403Z,1024.24
2019-02-23T07:50:11.001Z,1024.25
2019-02-23T07:50:52.627Z,1024.24
2019-02-23T07:51:32.367Z,1024.23
2019-02-23T07:52:13.109Z,1024.25
2019-02-23T07:52:53.699Z,1024.24
2019-02-23T07:53:34.301Z,1024.25
2019-02-23T07:54:15.800Z,1024.3
2019-02-23T07:54:58.271Z,1024.29
2019-02-23T07:55:38.873Z,1024.27
2019-02-23T07:56:19.771Z,1024.27
2019-02-23T07:57:00.907Z,1024.32
2019-02-23T07:57:42.237Z,1024.32
2019-02-23T07:58:23.142Z,1024.34
2019-02-23T07:59:03.756Z,1024.3
2019-02-23T07:59:44.381Z,1024.32
2019-02-23T08:00:24.993Z,1024.33
2019-02-23T08:01:05.585Z,1024.3
2019-02-23T08:01:46.249Z,1024.33
2019-02-23T08:02:26.808Z,1024.31
2019-02-23T08:03:07.403Z,1024.32
2019-02-23T08:03:48.006Z,1024.31
2019-02-23T08:04:28.609Z,1024.26
2019-02-23T08:05:09.217Z,1024.28
2019-02-23T08:05:49.825Z,1024.32
2019-02-23T08:06:30.435Z,1024.27
2019-02-23T08:07:11.051Z,1024.29
2019-02-23T08:07:51.672Z,1024.3
2019-02-23T08:08:32.318Z,1024.31
2019-02-23T08:09:12.927Z,1024.34
2019-02-23T08:09:53.542Z,1024.33
2019-02-23T08:10:34.141Z,1024.33
2019-02-23T08:11:14.761Z,1024.37
2019-02-23T08:11:55.420Z,1024.32
2019-02-23T08:12:36.041Z,1024.32
2019-02-23T08:13:16.858Z,1024.33